Latest Weather Observations for Yanco

IDN60801

Issued at 6:43 pm EDT Wednesday 29 January 2020 (issued every 10 minutes, with the page automatically refreshed every 10 minutes)

About weather observations | Map of weather stations | Latest weather observations for NSW | Other Formats
Station Details ID: 074037 Name: YANCO AGRICULTURAL INSTITUTE Lat: -34.62 Lon: 146.43 Height: 164.0 m
Data from the previous 72 hours. | See also: Recent months at Yanco
Date/Time
EDT
Temp
°C
App
Temp
°C
Dew
Point
°C
Rel
Hum
%
Delta-T
°C
Wind Press
QNH
hPa
Press
MSL
hPa
Rain since
9am
mm
Dir  Spd
km/h
Gust
km/h
Spd
kts
Gust
kts
29/06:30pm 35.6 32.6 7.6 18 15.8 S 13 20 7 11 - - 0.0
29/06:00pm 36.4 33.9 9.8 20 15.5 SW 13 20 7 11 - - 0.0
29/05:30pm 35.9 32.2 9.4 20 15.3 SSW 19 28 10 15 - - 0.0
29/05:00pm 35.9 32.2 9.4 20 15.3 S 19 28 10 15 - - 0.0
29/04:30pm 36.0 33.8 9.5 20 15.4 SW 11 22 6 12 - - 0.0
29/04:00pm 35.7 32.9 10.0 21 15.0 S 15 33 8 18 - - 0.0
29/03:30pm 35.3 33.0 10.4 22 14.6 SSW 13 26 7 14 - - 0.0
29/03:00pm 35.7 32.9 11.4 23 14.5 SSW 17 24 9 13 - - 0.0
29/02:30pm 34.9 33.1 10.7 23 14.2 S 11 26 6 14 - - 0.0
29/02:00pm 33.8 30.6 9.8 23 13.9 SSW 17 30 9 16 - - 0.0
29/01:30pm 34.1 31.7 10.0 23 14.0 SSW 13 24 7 13 - - 0.0
29/01:00pm 33.1 29.7 9.2 23 13.6 SW 17 22 9 12 - - 0.0
29/12:30pm 33.3 29.6 9.4 23 13.7 S 19 28 10 15 - - 0.0
29/12:00pm 32.3 29.1 8.5 23 13.4 S 15 26 8 14 - - 0.0
29/11:30am 32.4 30.0 9.9 25 12.9 SSW 13 20 7 11 - - 0.0
29/11:00am 31.1 28.4 8.8 25 12.5 SSE 13 19 7 10 - - 0.0
29/10:30am 30.0 27.7 9.0 27 11.8 SSE 11 19 6 10 - - 0.0
29/10:00am 29.1 26.7 8.7 28 11.3 SE 11 17 6 9 - - 0.0
29/09:30am 27.8 24.9 8.1 29 10.7 SE 13 19 7 10 - - 0.0
29/09:00am 27.0 24.5 8.0 30 10.3 SE 11 19 6 10 - - 0.0
29/08:30am 25.4 22.5 8.0 33 9.4 SSE 13 24 7 13 - - 0.0
29/08:00am 23.1 20.7 6.8 35 8.5 SSE 9 13 5 7 - - 0.0
29/07:30am 22.0 19.5 6.7 37 7.9 SE 9 13 5 7 - - 0.0
29/07:00am 21.8 18.8 6.1 36 8.0 SE 11 15 6 8 - - 0.0
29/06:30am 21.3 17.5 6.0 37 7.7 SSE 15 19 8 10 - - 0.0
29/06:00am 21.8 18.4 6.1 36 8.0 SSE 13 19 7 10 - - 0.0
29/05:30am 22.2 18.9 6.4 36 8.1 SE 13 15 7 8 - - 0.0
29/05:00am 21.8 19.7 6.5 37 7.8 SE 7 11 4 6 - - 0.0
29/04:30am 21.4 20.5 6.1 37 7.8 CALM 0 0 0 0 - - 0.0
29/04:00am 22.3 21.1 6.5 36 8.1 SE 2 4 1 2 - - 0.0
29/03:30am 22.7 20.6 6.5 35 8.3 SSE 7 9 4 5 - - 0.0
29/03:00am 23.1 21.0 6.8 35 8.5 S 7 11 4 6 - - 0.0
29/02:30am 22.6 20.7 7.6 38 7.9 SSW 7 7 4 4 - - 0.0
29/02:00am 23.9 21.5 7.1 34 8.8 S 9 13 5 7 - - 0.0
29/01:30am 23.9 22.6 7.5 35 8.7 SSE 4 9 2 5 - - 0.0
29/01:00am 24.8 22.4 7.0 32 9.4 SSE 9 13 5 7 - - 0.0
29/12:30am 25.6 22.9 7.2 31 9.8 S 11 15 6 8 - - 0.0
29/12:00am 25.5 23.2 7.6 32 9.6 S 9 11 5 6 - - 0.0
 
Date/Time
EDT
Temp
°C
App
Temp
°C
Dew
Point
°C
Rel
Hum
%
Delta-T
°C
Wind Press
QNH
hPa
Press
MSL
hPa
Rain since
9am
mm
Dir  Spd
km/h
Gust
km/h
Spd
kts
Gust
kts
28/11:30pm 25.4 23.1 7.5 32 9.5 S 9 11 5 6 - - 0.0
28/11:00pm 26.2 24.0 7.7 31 9.9 S 9 11 5 6 - - 0.0
28/10:30pm 26.8 24.7 8.3 31 10.1 S 9 13 5 7 - - 0.0
28/10:00pm 26.2 24.3 9.1 34 9.4 SSW 9 13 5 7 - - 0.0
28/09:30pm 27.1 26.1 7.5 29 10.5 SSW 2 6 1 3 - - 0.0
28/09:00pm 27.7 26.0 7.5 28 10.9 SSW 6 6 3 3 - - 0.0
28/08:30pm 28.3 26.4 7.5 27 11.3 SW 7 7 4 4 - - 0.0
28/08:00pm 30.5 27.0 7.0 23 12.8 SW 15 22 8 12 - - 0.0
28/07:30pm 31.3 27.6 6.4 21 13.5 SW 15 22 8 12 - - 0.0
28/07:00pm 31.9 27.6 6.9 21 13.7 SSW 19 26 10 14 - - 0.0
28/06:30pm 32.8 27.5 6.9 20 14.2 SW 24 33 13 18 - - 0.0
28/06:00pm 33.3 28.3 6.6 19 14.6 SW 22 32 12 17 - - 0.0
28/05:30pm 33.9 28.6 7.0 19 14.9 WSW 24 39 13 21 - - 0.0
28/05:00pm 33.7 29.0 6.1 18 15.0 WSW 20 32 11 17 - - 0.0
28/04:30pm 33.5 28.9 6.7 19 14.7 WSW 20 28 11 15 - - 0.0
28/04:00pm 32.5 28.0 5.9 19 14.3 WSW 19 28 10 15 - - 0.0
28/03:30pm 32.2 27.7 7.1 21 13.8 WSW 20 28 11 15 - - 0.0
28/03:00pm 32.0 27.8 7.6 22 13.5 SW 19 30 10 16 - - 0.0
28/02:30pm 32.1 29.1 7.7 22 13.5 SW 13 20 7 11 - - 0.0
28/02:00pm 31.4 27.4 8.4 24 12.8 SW 19 24 10 13 - - 0.0
28/01:30pm 31.3 27.2 10.1 27 12.2 SW 22 30 12 16 - - 0.0
28/01:00pm 31.9 28.5 10.6 27 12.3 SW 19 30 10 16 - - 0.0
28/12:30pm 31.5 28.8 10.2 27 12.2 SW 15 24 8 13 - - 0.0
28/12:00pm 31.5 27.8 10.2 27 12.2 SW 20 30 11 16 - - 0.0
28/11:30am 30.5 28.4 9.9 28 11.7 WSW 11 20 6 11 - - 0.0
28/11:00am 29.1 27.3 10.7 32 10.5 SW 11 15 6 8 - - 0.0
28/10:30am 29.0 27.9 10.6 32 10.5 WSW 7 13 4 7 - - 0.0
28/10:00am 27.2 26.2 10.4 35 9.5 W 6 9 3 5 - - 0.0
28/09:30am 25.5 25.3 11.7 42 7.9 NW 4 7 2 4 - - 0.0
28/09:00am 23.3 23.1 11.7 48 6.6 WSW 4 7 2 4 - - 0.0
28/08:30am 21.6 20.3 10.1 48 6.3 WSW 7 7 4 4 - - 0.0
28/08:00am 20.7 19.1 10.2 51 5.7 SW 9 13 5 7 - - 0.0
28/07:30am 20.1 19.2 9.4 50 5.7 N 4 4 2 2 - - 0.0
28/07:00am 19.6 18.1 8.3 48 5.9 N 6 6 3 3 - - 0.0
28/06:30am 19.8 19.0 6.5 42 6.7 CALM 0 0 0 0 - - 0.0
28/06:00am 20.8 20.0 6.4 39 7.3 CALM 0 2 0 1 - - 0.0
28/05:30am 20.2 19.3 6.2 40 7.1 CALM 0 0 0 0 - - 0.0
28/05:00am 21.1 20.3 6.6 39 7.4 CALM 0 0 0 0 - - 0.0
28/04:30am 19.7 19.1 7.4 45 6.3 CALM 0 0 0 0 - - 0.0
28/04:00am 21.5 20.6 6.2 37 7.8 CALM 0 0 0 0 - - 0.0
28/03:30am 21.1 20.4 7.0 40 7.3 CALM 0 0 0 0 - - 0.0
28/03:00am 22.6 21.1 6.8 36 8.2 S 4 7 2 4 - - 0.0
28/02:30am 22.6 20.6 7.2 37 8.0 SSW 7 9 4 5 - - 0.0
28/02:00am 22.2 21.3 6.0 35 8.2 CALM 0 0 0 0 - - 0.0
28/01:30am 23.1 21.2 6.8 35 8.5 SSW 6 7 3 4 - - 0.0
28/01:00am 23.9 22.0 6.7 33 9.0 SSW 6 6 3 3 - - 0.0
28/12:30am 24.1 21.9 6.4 32 9.2 SSW 7 7 4 4 - - 0.0
28/12:00am 24.6 22.1 6.4 31 9.5 SSW 9 9 5 5 - - 0.0
 
Date/Time
EDT
Temp
°C
App
Temp
°C
Dew
Point
°C
Rel
Hum
%
Delta-T
°C
Wind Press
QNH
hPa
Press
MSL
hPa
Rain since
9am
mm
Dir  Spd
km/h
Gust
km/h
Spd
kts
Gust
kts
27/11:30pm 25.9 23.8 6.0 28 10.4 SSW 6 6 3 3 - - 0.0
27/11:00pm 26.8 24.7 5.7 26 11.0 SW 6 6 3 3 - - 0.0
27/10:30pm 27.5 25.8 5.7 25 11.4 SW 4 6 2 3 - - 0.0
27/10:00pm 28.3 26.7 6.4 25 11.6 SW 4 4 2 2 - - 0.0
27/09:30pm 28.6 27.2 7.2 26 11.5 SW 4 6 2 3 - - 0.0
27/09:00pm 29.3 27.7 7.8 26 11.8 SSW 6 6 3 3 - - 0.0
27/08:30pm 29.9 27.4 8.3 26 12.0 SSW 11 15 6 8 - - 0.0
27/08:00pm 32.2 29.5 9.1 24 13.1 SW 13 17 7 9 - - 0.0
27/07:30pm 33.4 31.0 10.1 24 13.5 SW 13 19 7 10 - - 0.0
27/07:00pm 33.7 30.6 10.3 24 13.6 SSW 17 24 9 13 - - 0.0
27/06:30pm 34.5 31.6 11.0 24 13.9 SSW 17 24 9 13 - - 0.0
27/06:00pm 34.4 30.9 10.9 24 13.8 SSW 20 26 11 14 - - 0.0
27/05:30pm 34.3 30.8 10.8 24 13.8 SW 20 28 11 15 - - 0.0
27/05:00pm 35.0 31.5 10.8 23 14.3 WSW 20 33 11 18 - - 0.0
27/04:30pm 35.4 33.1 11.7 23 14.2 W 15 24 8 13 - - 0.0
27/04:00pm 35.6 32.4 11.9 24 14.2 WSW 20 30 11 16 - - 0.0
27/03:30pm 35.3 32.6 11.7 24 14.1 W 17 28 9 15 - - 0.0
27/03:00pm 35.5 33.6 13.1 26 13.7 WSW 15 30 8 16 - - 0.0
27/02:30pm 34.8 33.1 13.6 28 13.0 NW 15 28 8 15 - - 0.0
27/02:00pm 35.5 34.0 15.3 30 12.7 WSW 17 28 9 15 - - 0.0
27/01:30pm 34.2 32.7 14.1 29 12.4 WNW 15 22 8 12 - - 0.0
27/01:00pm 33.8 32.2 13.8 30 12.3 W 15 22 8 12 - - 0.0
27/12:30pm 33.1 31.8 13.7 31 11.8 WSW 13 22 7 12 - - 0.0
27/12:00pm 32.2 31.4 13.9 33 11.2 W 11 17 6 9 - - 0.0
27/11:30am 31.9 31.9 14.1 34 10.9 SSW 7 17 4 9 - - 0.0
27/11:00am 31.4 31.9 14.1 35 10.6 SW 4 9 2 5 - - 0.0
27/10:30am 29.8 30.1 13.5 36 9.8 W 4 7 2 4 - - 0.0
27/10:00am 29.1 29.4 13.3 37 9.4 ENE 4 7 2 4 - - 0.0
27/09:30am 27.4 28.6 14.8 46 7.7 SE 2 6 1 3 - - 0.0
27/09:00am 25.7 26.0 15.1 52 6.4 SE 7 11 4 6 - - 0.0
27/08:30am 23.9 24.3 15.4 59 5.1 SE 7 13 4 7 - - 0.0
27/08:00am 22.5 22.8 15.1 63 4.4 SSW 7 9 4 5 - - 0.0
27/07:30am 21.0 21.2 14.6 67 3.8 S 7 9 4 5 - - 0.0
27/07:00am 18.4 18.6 14.3 77 2.4 SSW 6 7 3 4 - - 0.0
27/06:30am 19.5 19.4 13.2 67 3.6 SE 6 7 3 4 - - 0.0
27/06:00am 20.2 20.9 13.4 65 3.9 SSE 2 4 1 2 - - 0.0
27/05:30am 20.3 20.0 13.3 64 4.0 S 7 7 4 4 - - 0.0
27/05:00am 21.4 21.0 13.1 59 4.8 SSE 7 9 4 5 - - 0.0
27/04:30am 21.6 21.2 13.0 58 4.9 S 7 9 4 5 - - 0.0
27/04:00am 21.9 21.6 12.7 56 5.3 SSW 6 7 3 4 - - 0.0
27/03:30am 22.2 21.8 12.5 54 5.5 SSW 6 6 3 3 - - 0.0
27/03:00am 23.1 22.6 12.1 50 6.3 SSW 6 7 3 4 - - 0.0
27/02:30am 22.9 22.4 12.5 52 6.0 SSW 7 9 4 5 - - 0.0
27/02:00am 22.6 21.7 12.5 53 5.8 SSW 9 9 5 5 - - 0.0
27/01:30am 23.6 23.6 12.3 49 6.5 ESE 4 7 2 4 - - 0.0
27/01:00am 26.2 25.3 11.5 40 8.4 ESE 7 9 4 5 - - 0.0
27/12:30am 25.5 24.9 11.7 42 7.9 S 6 7 3 4 - - 0.0
27/12:00am 26.2 25.3 11.5 40 8.4 S 7 7 4 4 - - 0.0
 
Date/Time
EDT
Temp
°C
App
Temp
°C
Dew
Point
°C
Rel
Hum
%
Delta-T
°C
Wind Press
QNH
hPa
Press
MSL
hPa
Rain since
9am
mm
Dir  Spd
km/h
Gust
km/h
Spd
kts
Gust
kts
26/11:30pm 26.4 25.7 11.3 39 8.6 S 6 7 3 4 - - 0.0
26/11:00pm 26.3 25.4 11.2 38 8.6 SSW 7 7 4 4 - - 0.0
26/10:30pm 26.6 25.6 11.1 38 8.8 SSW 7 7 4 4 - - 0.0
26/10:00pm 27.5 26.7 11.1 36 9.4 SSW 6 6 3 3 - - 0.0
26/09:30pm 27.9 27.1 11.0 35 9.7 SSW 6 7 3 4 - - 0.0
26/09:00pm 28.4 26.9 10.6 33 10.2 SSW 9 9 5 5 - - 0.0
26/08:30pm 30.1 27.7 10.1 29 11.4 SSW 13 17 7 9 - - 0.0
26/08:00pm 31.7 28.8 11.0 28 12.1 SW 17 22 9 12 - - 0.0
26/07:30pm 32.9 30.0 9.7 24 13.3 SSW 15 20 8 11 - - 0.0
26/07:00pm 33.5 29.6 9.5 23 13.8 SW 20 28 11 15 - - 0.0

Other formats

Comma delimited format used in spreadsheet applications
http://www.bom.gov.au/fwo/IDN60801/IDN60801.95705.axf

JavaScript Object Notation format (JSON) in row-major order
http://www.bom.gov.au/fwo/IDN60801/IDN60801.95705.json

Data quality

Most of these data are generated automatically and are frequently updated. Quality checks on data are not normally performed. It is possible for incorrect values to appear. Refer to information at About Latest Weather Observations and please check the disclaimer before using these data.